Aarau, Switzerland
Current Conditions -  °F | °C
As of 6:50 AM on Friday 31 Oct 2014 (Local Time) from LSZH Reporting Station
Moderate Fog Moderate Fog  
Wind Chill: 41°   Ceiling: 100
Heat Index: 41°   Visibility: 0.18mi
Dew Point: 41°   Wind: 2mph
Humidity: 100%   Direction: NA
Pressure: 30.3"   Gusts: NA
Location:  47.4°N, 8.04°E
Report Text: LSZH 310550Z VRB02KT 0300 R14/0600N R16/0750N R28/0500N R34/0450N FG VV001 05/05 Q1026 TEMPO 0200
Loading
Personal Weather Stations






























Interactive Weather Map
Tropical Storm Tracking
New forecast layout! Learn more

10-Day Weather Forecast

Advertisements
Track Severe Weather on mobile